Ty Ty, Georgia
Current Conditions -  °F | °C
As of 10:10 AM on Friday 31 Oct 2014 (Local Time) from KTMA Reporting Station
Clear Clear  
Wind Chill: 58°   Ceiling: Unl
Heat Index: 58°   Visibility: 10mi
Dew Point: 43°   Wind: 5mph
Humidity: 58%   Direction: 320°NW
Pressure: 29.95"   Gusts: NA
Location:  31.47°N, 83.65°W
Report Text: KTMA 311410Z AUTO 32004KT 10SM CLR 14/06 A2995 RMK AO2 T01430061
Loading
Personal Weather Stations






























Interactive Weather Map
Tropical Storm Tracking
New forecast layout! Learn more

10-Day Weather Forecast

Advertisements
Track Severe Weather on mobile